Terminal Aerodrome Forecast
Issued by NWS Louisville, KY

Home | Current Version | Previous Version | Text Only | Print | Product List | Glossary On
Versions: 1 2 3 4 5 6 7 8 9 10 11 12
487
FTUS43 KLMK 171121
TAFSDF
TAF
KSDF 171121Z 1712/1818 VRB03KT P6SM SKC
     FM171400 18005KT P6SM FEW250
     FM180000 00000KT P6SM FEW250=

USA.gov is the U.S. government's official web portal to all federal, state and local government web resources and services.